createdAt,value
2018-12-14T00:01:43.612Z,1.98
2018-12-14T00:04:12.875Z,8.88
2018-12-14T00:06:42.140Z,1.70
2018-12-14T00:09:11.407Z,4.47
2018-12-14T00:11:45.498Z,12.25
2018-12-14T00:14:10.852Z,2.35
2018-12-14T00:19:15.443Z,2.20
2018-12-14T00:21:44.719Z,2.20
2018-12-14T00:24:13.977Z,4.75
2018-12-14T00:26:43.242Z,2.20
2018-12-14T00:29:12.503Z,1.50
2018-12-14T00:31:41.753Z,1.60
2018-12-14T00:34:10.991Z,3.72
2018-12-14T00:36:40.250Z,2.27
2018-12-14T00:39:09.496Z,2.95
2018-12-14T00:41:38.759Z,2.22
2018-12-14T00:44:08.015Z,1.98
2018-12-14T00:46:44.947Z,2.15
2018-12-14T00:49:14.558Z,1.42
2018-12-14T00:51:43.822Z,2.87
2018-12-14T00:54:13.093Z,5.03
2018-12-14T00:56:42.353Z,4.72
2018-12-14T00:59:11.602Z,9.10
2018-12-14T01:01:40.867Z,2.90
2018-12-14T01:04:10.116Z,3.05
2018-12-14T01:06:39.515Z,11.03
2018-12-14T01:09:08.758Z,3.52
2018-12-14T01:11:38.024Z,4.95
2018-12-14T01:14:07.279Z,3.12
2018-12-14T01:16:36.533Z,2.72
2018-12-14T01:19:05.802Z,3.08
2018-12-14T01:21:35.073Z,5.20
2018-12-14T01:24:04.399Z,5.20
2018-12-14T01:26:33.704Z,5.22
2018-12-14T01:29:02.953Z,8.35
2018-12-14T01:31:32.219Z,10.40
2018-12-14T01:34:01.471Z,2.72
2018-12-14T01:36:30.732Z,2.50
2018-12-14T01:38:59.988Z,2.35
2018-12-14T01:41:29.249Z,1.77
2018-12-14T01:43:58.506Z,8.73
2018-12-14T01:46:47.357Z,2.72
2018-12-14T01:49:16.625Z,4.10
2018-12-14T01:51:45.899Z,1.60
2018-12-14T01:54:15.149Z,5.80
2018-12-14T01:56:44.421Z,5.00
2018-12-14T01:59:13.696Z,3.08
2018-12-14T02:01:42.962Z,4.78
2018-12-14T02:04:12.227Z,4.22
2018-12-14T02:06:41.479Z,3.70
2018-12-14T02:09:10.741Z,5.97
2018-12-14T02:11:40.004Z,5.42
2018-12-14T02:14:09.251Z,3.45
2018-12-14T02:16:38.525Z,3.45
2018-12-14T02:19:07.794Z,4.62
2018-12-14T02:21:37.070Z,5.25
2018-12-14T02:24:06.349Z,1.92
2018-12-14T02:26:35.593Z,4.53
2018-12-14T02:29:04.862Z,3.40
2018-12-14T02:31:34.143Z,1.70
2018-12-14T02:34:03.403Z,4.35
2018-12-14T02:36:32.658Z,4.62
2018-12-14T02:39:01.924Z,1.40
2018-12-14T02:41:31.188Z,2.40
2018-12-14T02:44:00.468Z,2.22
2018-12-14T02:46:29.733Z,5.28
2018-12-14T02:48:58.991Z,5.42
2018-12-14T02:51:28.266Z,4.78
2018-12-14T02:53:57.558Z,9.58
2018-12-14T02:56:26.806Z,2.98
2018-12-14T02:58:56.089Z,7.85
2018-12-14T03:01:25.443Z,2.75
2018-12-14T03:03:54.715Z,6.08
2018-12-14T03:06:23.970Z,7.47
2018-12-14T03:08:53.246Z,9.03
2018-12-14T03:11:22.502Z,6.72
2018-12-14T03:13:51.763Z,7.80
2018-12-14T03:16:21.025Z,4.75
2018-12-14T03:18:50.295Z,4.15
2018-12-14T03:21:38.691Z,5.50
2018-12-14T03:24:07.959Z,3.27
2018-12-14T03:26:37.224Z,5.95
2018-12-14T03:29:06.490Z,5.25
2018-12-14T03:31:35.741Z,4.70
2018-12-14T03:34:05.010Z,3.65
2018-12-14T03:36:34.261Z,3.15
2018-12-14T03:41:39.267Z,6.55
2018-12-14T03:44:08.530Z,3.58
2018-12-14T03:46:37.782Z,3.65
2018-12-14T03:49:07.050Z,4.97
2018-12-14T03:51:36.301Z,4.42
2018-12-14T03:54:05.577Z,2.42
2018-12-14T03:56:34.829Z,10.05
2018-12-14T03:59:04.097Z,6.75
2018-12-14T04:01:33.359Z,3.50
2018-12-14T04:04:02.626Z,5.78
2018-12-14T04:06:31.890Z,6.12
2018-12-14T04:09:01.168Z,4.28
2018-12-14T04:11:30.412Z,6.22
2018-12-14T04:13:59.680Z,4.70
2018-12-14T04:16:28.944Z,2.87
2018-12-14T04:18:58.199Z,9.33
2018-12-14T04:21:27.457Z,3.00
2018-12-14T04:23:56.717Z,2.35
2018-12-14T04:26:25.965Z,2.20
2018-12-14T04:28:55.236Z,2.67
2018-12-14T04:31:24.496Z,4.55
2018-12-14T04:33:53.763Z,3.65
2018-12-14T04:36:23.053Z,3.05
2018-12-14T04:38:52.324Z,3.65
2018-12-14T04:41:21.576Z,4.55
2018-12-14T04:43:50.856Z,8.18
2018-12-14T04:46:20.133Z,6.10
2018-12-14T04:48:49.398Z,10.53
2018-12-14T04:51:38.594Z,4.72
2018-12-14T04:54:07.861Z,4.92
2018-12-14T04:56:37.110Z,3.42
2018-12-14T04:59:06.384Z,2.55
2018-12-14T05:01:35.630Z,3.22
2018-12-14T05:04:04.895Z,2.15
2018-12-14T05:06:34.213Z,1.82
2018-12-14T05:11:39.445Z,5.70
2018-12-14T05:14:09.398Z,5.00
2018-12-14T05:16:38.659Z,3.80
2018-12-14T05:19:07.940Z,2.27
2018-12-14T05:21:37.194Z,6.28
2018-12-14T05:24:06.462Z,2.67
2018-12-14T05:26:35.799Z,5.97
2018-12-14T05:29:04.986Z,12.25
2018-12-14T05:31:34.254Z,4.45
2018-12-14T05:34:03.509Z,4.28
2018-12-14T05:36:32.783Z,5.70
2018-12-14T05:39:02.037Z,5.72
2018-12-14T05:41:31.425Z,2.67
2018-12-14T05:44:00.656Z,2.40
2018-12-14T05:46:29.938Z,6.72
2018-12-14T05:48:59.197Z,3.12
2018-12-14T05:51:28.469Z,13.90
2018-12-14T05:53:57.724Z,5.30
2018-12-14T05:59:02.716Z,7.75
2018-12-14T06:01:31.982Z,3.85
2018-12-14T06:06:50.488Z,8.48
2018-12-14T06:09:19.765Z,2.30
2018-12-14T06:11:49.011Z,5.90
2018-12-14T06:14:18.266Z,5.30
2018-12-14T06:16:47.538Z,3.52
2018-12-14T06:19:16.881Z,5.47
2018-12-14T06:21:46.173Z,3.90
2018-12-14T06:24:15.419Z,6.17
2018-12-14T06:26:44.707Z,10.05
2018-12-14T06:29:13.968Z,6.80
2018-12-14T06:31:43.229Z,6.17
2018-12-14T06:34:12.480Z,6.25
2018-12-14T06:36:41.738Z,7.70
2018-12-14T06:39:10.994Z,8.08
2018-12-14T06:44:15.740Z,11.22
2018-12-14T06:46:45.005Z,3.37
2018-12-14T06:49:14.261Z,4.45
2018-12-14T06:51:43.532Z,5.53
2018-12-14T06:54:12.783Z,3.20
2018-12-14T06:56:42.047Z,6.08
2018-12-14T06:59:11.302Z,5.85
2018-12-14T07:01:40.584Z,6.22
2018-12-14T07:04:09.835Z,4.25
2018-12-14T07:06:39.100Z,5.22
2018-12-14T07:09:08.354Z,4.53
2018-12-14T07:11:37.610Z,4.00
2018-12-14T07:14:06.864Z,3.85
2018-12-14T07:16:36.125Z,2.87
2018-12-14T07:19:05.389Z,15.20
2018-12-14T07:21:34.657Z,4.72
2018-12-14T07:24:03.938Z,11.38
2018-12-14T07:29:08.811Z,12.68
2018-12-14T07:31:38.161Z,8.63
2018-12-14T07:34:07.413Z,4.03
2018-12-14T07:36:36.696Z,7.17
2018-12-14T07:39:07.033Z,4.17
2018-12-14T07:41:36.308Z,3.90
2018-12-14T07:44:05.562Z,6.90
2018-12-14T07:46:34.840Z,5.70
2018-12-14T07:49:04.092Z,7.28
2018-12-14T07:54:07.911Z,11.88
2018-12-14T07:56:37.182Z,10.38
2018-12-14T07:59:06.510Z,5.10
2018-12-14T08:01:35.773Z,4.97
2018-12-14T08:04:05.028Z,10.13
2018-12-14T08:06:34.305Z,14.23
2018-12-14T08:11:52.967Z,4.85
2018-12-14T08:14:22.215Z,7.70
2018-12-14T08:16:51.473Z,7.17
2018-12-14T08:19:20.730Z,8.30
2018-12-14T08:21:49.991Z,9.18
2018-12-14T08:24:19.240Z,9.68
2018-12-14T08:26:48.503Z,2.83
2018-12-14T08:29:17.759Z,4.78
2018-12-14T08:34:22.035Z,4.37
2018-12-14T08:36:51.304Z,9.78
2018-12-14T08:39:20.548Z,7.47
2018-12-14T08:41:49.809Z,5.53
2018-12-14T08:47:07.453Z,4.80
2018-12-14T08:49:36.711Z,6.75
2018-12-14T08:52:05.982Z,5.95
2018-12-14T08:54:35.236Z,5.25
2018-12-14T08:57:04.526Z,7.92
2018-12-14T08:59:33.782Z,6.00
2018-12-14T09:04:38.416Z,4.30
2018-12-14T09:07:07.677Z,5.87
2018-12-14T09:12:25.336Z,12.15
2018-12-14T09:14:54.581Z,8.43
2018-12-14T09:19:58.775Z,6.80
2018-12-14T09:22:28.050Z,5.97
2018-12-14T09:24:57.308Z,13.43
2018-12-14T09:27:26.578Z,6.05
2018-12-14T09:29:55.832Z,8.13
2018-12-14T09:32:25.089Z,6.12
2018-12-14T09:34:54.353Z,12.28
2018-12-14T09:37:23.614Z,7.42
2018-12-14T09:39:52.875Z,15.93
2018-12-14T09:42:22.154Z,11.15
2018-12-14T09:44:51.407Z,8.33
2018-12-14T09:47:20.662Z,7.37
2018-12-14T09:50:09.519Z,10.38
2018-12-14T09:52:38.801Z,6.53
2018-12-14T09:55:08.049Z,19.82
2018-12-14T09:57:37.314Z,8.78
2018-12-14T10:00:06.615Z,5.47
2018-12-14T10:02:35.883Z,6.47
2018-12-14T10:05:05.604Z,13.72
2018-12-14T10:07:34.855Z,7.03
2018-12-14T10:10:04.377Z,9.08
2018-12-14T10:12:33.617Z,9.78
2018-12-14T10:15:02.890Z,5.12
2018-12-14T10:17:32.135Z,11.63
2018-12-14T10:20:01.396Z,5.12
2018-12-14T10:22:30.645Z,6.70
2018-12-14T10:24:59.910Z,3.80
2018-12-14T10:27:29.174Z,4.15
2018-12-14T10:29:58.431Z,4.58
2018-12-14T10:32:27.685Z,6.20
2018-12-14T10:34:56.943Z,9.70
2018-12-14T10:37:26.196Z,5.47
2018-12-14T10:39:55.461Z,6.75
2018-12-14T10:42:24.796Z,4.75
2018-12-14T10:44:54.067Z,6.30
2018-12-14T10:47:23.325Z,10.45
2018-12-14T10:49:52.584Z,6.60
2018-12-14T10:52:21.846Z,5.05
2018-12-14T10:57:26.470Z,8.23
2018-12-14T10:59:55.737Z,7.67
2018-12-14T11:02:24.986Z,7.47
2018-12-14T11:04:54.248Z,6.67
2018-12-14T11:07:23.499Z,4.80
2018-12-14T11:09:52.761Z,4.65
2018-12-14T11:12:22.040Z,7.33
2018-12-14T11:14:51.309Z,11.10
2018-12-14T11:17:20.573Z,6.10
2018-12-14T11:19:49.832Z,5.00
2018-12-14T11:22:19.091Z,5.65
2018-12-14T11:24:48.360Z,15.45
2018-12-14T11:27:17.615Z,5.42
2018-12-14T11:29:46.906Z,4.60
2018-12-14T11:32:16.156Z,9.50
2018-12-14T11:34:45.440Z,6.05
2018-12-14T11:37:14.762Z,6.70
2018-12-14T11:39:44.009Z,9.58
2018-12-14T11:42:13.352Z,14.85
2018-12-14T11:44:42.621Z,4.80
2018-12-14T11:47:17.967Z,6.05
2018-12-14T11:49:42.056Z,6.12
2018-12-14T11:52:18.214Z,4.65
2018-12-14T11:55:07.534Z,6.10
2018-12-14T11:57:36.795Z,11.93
2018-12-14T12:00:09.080Z,5.17
2018-12-14T12:02:43.044Z,5.37
2018-12-14T12:05:08.544Z,3.05
2018-12-14T12:10:13.216Z,7.30
2018-12-14T12:12:42.565Z,5.40
2018-12-14T12:15:11.815Z,4.65
2018-12-14T12:17:41.069Z,6.45
2018-12-14T12:20:10.322Z,7.30
2018-12-14T12:22:39.582Z,4.85
2018-12-14T12:25:08.831Z,6.87
2018-12-14T12:27:38.101Z,8.68
2018-12-14T12:30:08.449Z,12.53
2018-12-14T12:32:37.709Z,8.60
2018-12-14T12:35:08.119Z,6.67
2018-12-14T12:37:37.143Z,6.03
2018-12-14T12:40:06.429Z,8.45
2018-12-14T12:42:35.690Z,3.85
2018-12-14T12:45:05.063Z,8.35
2018-12-14T12:47:34.326Z,17.35
2018-12-14T12:50:03.571Z,3.05
2018-12-14T12:52:32.836Z,5.78
2018-12-14T12:55:02.086Z,4.62
2018-12-14T12:57:31.352Z,3.15
2018-12-14T13:00:00.603Z,3.67
2018-12-14T13:02:29.870Z,5.83
2018-12-14T13:04:59.119Z,6.12
2018-12-14T13:07:28.389Z,9.25
2018-12-14T13:09:57.643Z,6.58
2018-12-14T13:12:26.913Z,6.80
2018-12-14T13:14:56.154Z,5.67
2018-12-14T13:17:25.420Z,8.30
2018-12-14T13:19:54.674Z,5.65
2018-12-14T13:22:23.966Z,8.60
2018-12-14T13:24:53.210Z,7.50
2018-12-14T13:27:22.477Z,6.28
2018-12-14T13:29:51.724Z,3.75
2018-12-14T13:32:20.985Z,7.45
2018-12-14T13:34:50.233Z,4.90
2018-12-14T13:37:19.508Z,5.92
2018-12-14T13:39:48.773Z,4.17
2018-12-14T13:42:18.033Z,7.83
2018-12-14T13:47:36.606Z,10.18
2018-12-14T13:50:06.574Z,8.70
2018-12-14T13:52:35.859Z,7.33
2018-12-14T13:55:05.194Z,7.65
2018-12-14T13:57:34.463Z,7.35
2018-12-14T14:00:03.722Z,4.80
2018-12-14T14:02:33.013Z,6.85
2018-12-14T14:05:02.263Z,5.28
2018-12-14T14:07:31.497Z,8.48
2018-12-14T14:10:00.816Z,5.80
2018-12-14T14:12:31.007Z,5.65
2018-12-14T14:15:00.229Z,8.78
2018-12-14T14:17:29.484Z,3.83
2018-12-14T14:19:58.856Z,6.60
2018-12-14T14:22:28.106Z,7.87
2018-12-14T14:24:57.367Z,8.80
2018-12-14T14:27:26.627Z,10.38
2018-12-14T14:29:55.888Z,8.25
2018-12-14T14:32:25.167Z,18.85
2018-12-14T14:34:54.466Z,3.90
2018-12-14T14:37:23.728Z,9.05
2018-12-14T14:39:52.999Z,16.52
2018-12-14T14:42:22.254Z,5.25
2018-12-14T14:44:51.525Z,6.00
2018-12-14T14:47:20.773Z,9.33
2018-12-14T14:49:50.038Z,8.10
2018-12-14T14:52:19.287Z,5.40
2018-12-14T14:54:48.561Z,7.83
2018-12-14T14:57:17.821Z,7.33
2018-12-14T14:59:47.078Z,5.60
2018-12-14T15:02:16.334Z,19.02
2018-12-14T15:04:45.633Z,15.00
2018-12-14T15:07:14.892Z,15.18
2018-12-14T15:09:44.164Z,11.68
2018-12-14T15:12:13.576Z,23.00
2018-12-14T15:14:42.860Z,22.82
2018-12-14T15:17:12.180Z,10.95
2018-12-14T15:19:41.457Z,14.40
2018-12-14T15:22:10.725Z,7.33
2018-12-14T15:24:39.985Z,10.70
2018-12-14T15:27:09.233Z,9.80
2018-12-14T15:29:38.561Z,8.13
2018-12-14T15:32:07.280Z,9.10
2018-12-14T15:34:36.553Z,5.67
2018-12-14T15:37:05.814Z,9.43
2018-12-14T15:39:35.105Z,7.60
2018-12-14T15:42:04.356Z,11.12
2018-12-14T15:44:33.624Z,18.57
2018-12-14T15:47:02.907Z,19.02
2018-12-14T15:49:32.158Z,8.60
2018-12-14T15:52:01.423Z,12.25
2018-12-14T15:54:30.684Z,12.30
2018-12-14T15:56:59.945Z,12.75
2018-12-14T15:59:29.195Z,19.85
2018-12-14T16:01:58.456Z,7.72
2018-12-14T16:04:27.713Z,7.65
2018-12-14T16:06:56.985Z,11.05
2018-12-14T16:09:26.237Z,15.15
2018-12-14T16:11:55.498Z,8.78
2018-12-14T16:14:24.771Z,11.50
2018-12-14T16:16:54.031Z,6.67
2018-12-14T16:19:23.285Z,8.00
2018-12-14T16:21:52.549Z,10.10
2018-12-14T16:24:21.804Z,13.93
2018-12-14T16:26:51.097Z,17.37
2018-12-14T16:29:20.338Z,10.85
2018-12-14T16:31:49.605Z,7.20
2018-12-14T16:34:18.855Z,5.55
2018-12-14T16:36:48.117Z,16.02
2018-12-14T16:39:17.375Z,16.48
2018-12-14T16:41:46.639Z,5.53
2018-12-14T16:44:15.897Z,7.95
2018-12-14T16:46:45.172Z,12.30
2018-12-14T16:49:14.448Z,7.85
2018-12-14T16:51:43.729Z,19.05
2018-12-14T16:54:12.989Z,11.90
2018-12-14T16:56:42.245Z,6.33
2018-12-14T16:59:11.518Z,18.95
2018-12-14T17:01:40.791Z,19.55
2018-12-14T17:04:10.052Z,20.97
2018-12-14T17:06:39.364Z,11.68
2018-12-14T17:09:08.655Z,13.70
2018-12-14T17:11:37.929Z,21.42
2018-12-14T17:14:07.195Z,13.60
2018-12-14T17:16:36.466Z,14.50
2018-12-14T17:19:05.752Z,15.38
2018-12-14T17:21:35.031Z,7.87
2018-12-14T17:24:04.309Z,16.05
2018-12-14T17:26:33.566Z,13.95
2018-12-14T17:29:02.822Z,10.05
2018-12-14T17:31:32.135Z,18.00
2018-12-14T17:34:01.386Z,14.68
2018-12-14T17:36:30.644Z,10.00
2018-12-14T17:38:59.915Z,10.58
2018-12-14T17:41:29.174Z,18.70
2018-12-14T17:43:58.449Z,19.65
2018-12-14T17:46:27.707Z,19.75
2018-12-14T17:49:16.028Z,10.90
2018-12-14T17:51:45.301Z,18.02
2018-12-14T17:54:14.576Z,11.55
2018-12-14T17:56:43.869Z,16.95
2018-12-14T17:59:13.458Z,7.70
2018-12-14T18:01:42.793Z,5.28
2018-12-14T18:04:12.071Z,9.23
2018-12-14T18:06:41.323Z,10.40
2018-12-14T18:09:10.582Z,12.30
2018-12-14T18:11:39.837Z,14.60
2018-12-14T18:14:09.098Z,12.20
2018-12-14T18:19:27.619Z,13.20
2018-12-14T18:21:56.877Z,17.65
2018-12-14T18:24:26.138Z,12.10
2018-12-14T18:26:55.393Z,10.90
2018-12-14T18:29:24.668Z,21.77
2018-12-14T18:31:53.920Z,23.55
2018-12-14T18:34:23.198Z,11.35
2018-12-14T18:36:52.459Z,17.42
2018-12-14T18:39:21.732Z,15.13
2018-12-14T18:41:50.989Z,15.65
2018-12-14T18:44:20.266Z,26.02
2018-12-14T18:46:49.531Z,23.45
2018-12-14T18:49:18.802Z,15.15
2018-12-14T18:51:48.072Z,36.48
2018-12-14T18:54:17.693Z,11.22
2018-12-14T18:56:46.960Z,19.37
2018-12-14T19:01:51.680Z,16.23
2018-12-14T19:04:20.968Z,20.12
2018-12-14T19:06:50.216Z,23.20
2018-12-14T19:11:54.155Z,157.70
2018-12-14T19:14:23.399Z,82.67
2018-12-14T19:16:52.685Z,102.92
2018-12-14T19:19:21.938Z,64.35
2018-12-14T19:21:51.211Z,49.70
2018-12-14T19:24:20.478Z,124.33
2018-12-14T19:29:24.402Z,33.28
2018-12-14T19:42:13.588Z,18.02
2018-12-14T19:44:43.191Z,14.40
2018-12-14T19:49:48.139Z,23.20
2018-12-14T19:52:17.429Z,24.80
2018-12-14T19:57:35.185Z,16.73
2018-12-14T20:00:04.746Z,25.62
2018-12-14T20:02:34.011Z,18.55
2018-12-14T20:05:03.285Z,20.10
2018-12-14T20:07:32.553Z,16.60
2018-12-14T20:10:01.816Z,13.53
2018-12-14T20:12:31.080Z,26.27
2018-12-14T20:15:00.332Z,27.45
2018-12-14T20:17:29.608Z,18.05
2018-12-14T20:19:58.855Z,10.53
2018-12-14T20:22:28.126Z,27.93
2018-12-14T20:24:57.388Z,15.35
2018-12-14T20:27:26.657Z,15.45
2018-12-14T20:29:55.918Z,12.25
2018-12-14T20:32:25.187Z,17.52
2018-12-14T20:40:20.169Z,15.28
2018-12-14T20:45:24.730Z,23.07
2018-12-14T20:47:53.996Z,10.00
2018-12-14T20:50:23.252Z,26.70
2018-12-14T20:52:52.524Z,15.93
2018-12-14T20:55:21.796Z,17.77
2018-12-14T20:57:51.068Z,27.22
2018-12-14T21:00:21.555Z,20.23
2018-12-14T21:02:50.530Z,14.35
2018-12-14T21:05:19.810Z,13.58
2018-12-14T21:07:49.073Z,17.98
2018-12-14T21:10:18.341Z,19.77
2018-12-14T21:12:47.682Z,22.82
2018-12-14T21:15:16.901Z,16.67
2018-12-14T21:18:06.053Z,15.83
2018-12-14T21:20:35.310Z,18.23
2018-12-14T21:23:04.579Z,17.73
2018-12-14T21:25:33.837Z,16.35
2018-12-14T21:28:03.103Z,16.27
2018-12-14T21:30:32.360Z,22.40
2018-12-14T21:33:01.682Z,19.32
2018-12-14T21:35:30.939Z,31.70
2018-12-14T21:38:00.201Z,21.77
2018-12-14T21:40:29.475Z,13.85
2018-12-14T21:42:58.732Z,25.55
2018-12-14T21:45:27.996Z,18.82
2018-12-14T21:47:57.262Z,15.98
2018-12-14T21:50:26.534Z,13.18
2018-12-14T21:52:55.794Z,17.40
2018-12-14T21:55:25.065Z,13.48
2018-12-14T21:57:54.336Z,13.50
2018-12-14T22:00:23.606Z,20.92
2018-12-14T22:02:52.863Z,13.78
2018-12-14T22:05:22.128Z,16.15
2018-12-14T22:07:51.389Z,18.55
2018-12-14T22:10:20.655Z,10.40
2018-12-14T22:12:49.919Z,27.25
2018-12-14T22:15:19.202Z,17.92
2018-12-14T22:17:48.455Z,17.77
2018-12-14T22:20:17.718Z,15.10
2018-12-14T22:22:46.977Z,10.05
2018-12-14T22:25:16.313Z,19.82
2018-12-14T22:27:45.540Z,14.50
2018-12-14T22:30:14.804Z,12.58
2018-12-14T22:32:44.056Z,21.90
2018-12-14T22:35:32.927Z,12.07
2018-12-14T22:38:02.203Z,23.62
2018-12-14T22:40:31.481Z,16.73
2018-12-14T22:43:00.736Z,11.78
2018-12-14T22:45:49.069Z,15.55
2018-12-14T22:48:18.330Z,18.95
2018-12-14T22:50:47.602Z,15.25
2018-12-14T22:53:16.858Z,14.93
2018-12-14T22:55:46.140Z,27.60
2018-12-14T22:58:15.390Z,8.95
2018-12-14T23:01:03.385Z,12.95
2018-12-14T23:03:32.643Z,9.53
2018-12-14T23:06:01.908Z,14.23
2018-12-14T23:11:19.542Z,11.73
2018-12-14T23:13:48.793Z,12.00
2018-12-14T23:16:18.054Z,8.85
2018-12-14T23:18:47.312Z,10.23
2018-12-14T23:21:16.580Z,10.85
2018-12-14T23:23:45.830Z,17.95
2018-12-14T23:26:15.103Z,14.65
2018-12-14T23:28:44.352Z,10.18
2018-12-14T23:31:13.617Z,8.80
2018-12-14T23:33:42.870Z,12.98
2018-12-14T23:36:12.134Z,15.93
2018-12-14T23:38:41.390Z,21.12
2018-12-14T23:41:10.651Z,17.40
2018-12-14T23:43:39.908Z,9.65
2018-12-14T23:46:09.178Z,10.72
2018-12-14T23:48:38.436Z,8.58
2018-12-14T23:51:07.695Z,12.37
2018-12-14T23:53:36.950Z,8.85
2018-12-14T23:56:06.223Z,29.27
2018-12-14T23:58:35.477Z,15.03
